createdAt,value
2022-11-16T00:00:06.566Z,64.19
2022-11-16T00:03:33.134Z,63.70
2022-11-16T00:06:41.717Z,63.92
2022-11-16T00:09:48.285Z,63.88
2022-11-16T00:12:54.300Z,63.59
2022-11-16T00:16:00.638Z,63.84
2022-11-16T00:19:07.507Z,64.80
2022-11-16T00:22:13.556Z,64.67
2022-11-16T00:25:19.525Z,64.90
2022-11-16T00:28:25.457Z,64.67
2022-11-16T00:31:33.570Z,65.57
2022-11-16T00:34:40.694Z,65.27
2022-11-16T00:37:46.680Z,64.80
2022-11-16T00:40:53.186Z,64.50
2022-11-16T00:43:59.118Z,64.46
2022-11-16T00:47:05.200Z,64.70
2022-11-16T00:50:11.422Z,65.12
2022-11-16T00:53:18.180Z,64.77
2022-11-16T00:56:24.279Z,64.26
2022-11-16T00:59:30.426Z,64.48
2022-11-16T01:02:38.165Z,64.20
2022-11-16T01:05:44.127Z,64.01
2022-11-16T01:08:50.105Z,63.68
2022-11-16T01:12:10.910Z,63.77
2022-11-16T01:15:17.367Z,63.94
2022-11-16T01:18:24.412Z,63.60
2022-11-16T01:21:30.535Z,63.40
2022-11-16T01:24:36.642Z,63.36
2022-11-16T01:27:42.994Z,63.52
2022-11-16T01:30:53.978Z,64.66
2022-11-16T01:34:00.116Z,65.08
2022-11-16T01:37:07.983Z,64.80
2022-11-16T01:40:17.613Z,65.39
2022-11-16T01:43:25.187Z,65.30
2022-11-16T01:46:37.217Z,64.60
2022-11-16T01:49:45.949Z,64.77
2022-11-16T01:52:56.620Z,65.07
2022-11-16T01:56:04.205Z,65.61
2022-11-16T01:59:22.394Z,65.87
2022-11-16T02:02:28.901Z,65.40
2022-11-16T02:05:40.900Z,65.50
2022-11-16T02:09:13.931Z,64.76
2022-11-16T02:12:33.358Z,64.44
2022-11-16T02:15:41.482Z,64.79
2022-11-16T02:19:00.294Z,64.19
2022-11-16T02:22:09.608Z,64.10
2022-11-16T02:25:18.209Z,64.17
2022-11-16T02:28:29.746Z,64.42
2022-11-16T02:31:37.273Z,64.47
2022-11-16T02:34:43.897Z,64.87
2022-11-16T02:37:55.368Z,65.70
2022-11-16T02:41:03.615Z,66.09
2022-11-16T02:44:12.302Z,65.67
2022-11-16T02:47:21.008Z,65.87
2022-11-16T02:50:28.100Z,65.31
2022-11-16T02:53:37.323Z,64.88
2022-11-16T02:56:45.003Z,65.20
2022-11-16T02:59:53.172Z,66.02
2022-11-16T03:03:13.513Z,66.95
2022-11-16T03:06:21.859Z,67.10
2022-11-16T03:09:31.135Z,66.81
2022-11-16T03:12:37.037Z,66.75
2022-11-16T03:15:46.819Z,66.38
2022-11-16T03:18:56.776Z,66.96
2022-11-16T03:22:05.530Z,66.82
2022-11-16T03:25:13.609Z,66.70
2022-11-16T03:28:22.664Z,66.29
2022-11-16T03:31:30.755Z,66.47
2022-11-16T03:34:38.873Z,65.96
2022-11-16T03:37:46.032Z,65.17
2022-11-16T03:40:52.467Z,65.06
2022-11-16T03:43:59.394Z,64.82
2022-11-16T03:47:05.497Z,64.49
2022-11-16T03:50:11.762Z,64.03
2022-11-16T03:53:17.840Z,63.62
2022-11-16T03:56:25.442Z,63.12
2022-11-16T03:59:31.067Z,62.64
2022-11-16T04:02:37.756Z,62.31
2022-11-16T04:06:00.854Z,62.64
2022-11-16T04:09:23.513Z,62.26
2022-11-16T04:12:47.143Z,61.79
2022-11-16T04:16:10.226Z,62.38
2022-11-16T04:19:32.957Z,62.94
2022-11-16T04:22:59.693Z,62.93
2022-11-16T04:26:07.397Z,62.78
2022-11-16T04:29:14.464Z,62.86
2022-11-16T04:32:37.537Z,62.50
2022-11-16T04:36:10.807Z,62.30
2022-11-16T04:39:16.264Z,62.93
2022-11-16T04:42:22.808Z,62.89
2022-11-16T04:45:47.489Z,63.03
2022-11-16T04:48:54.005Z,63.14
2022-11-16T04:51:59.612Z,63.42
2022-11-16T04:55:06.980Z,63.31
2022-11-16T04:58:12.551Z,63.23
2022-11-16T05:01:18.103Z,63.46
2022-11-16T05:04:23.476Z,63.02
2022-11-16T05:07:29.333Z,62.70
2022-11-16T05:10:40.991Z,62.24
2022-11-16T05:13:47.680Z,62.34
2022-11-16T05:16:52.921Z,63.23
2022-11-16T05:20:16.322Z,63.63
2022-11-16T05:23:45.191Z,63.58
2022-11-16T05:26:52.096Z,64.89
2022-11-16T05:29:57.957Z,64.64
2022-11-16T05:33:03.471Z,64.22
2022-11-16T05:36:11.212Z,64.49
2022-11-16T05:39:17.478Z,64.96
2022-11-16T05:42:22.983Z,65.03
2022-11-16T05:45:28.602Z,64.84
2022-11-16T05:48:34.852Z,64.70
2022-11-16T05:51:41.975Z,64.62
2022-11-16T05:54:47.544Z,64.57
2022-11-16T05:57:52.863Z,64.63
2022-11-16T06:00:58.535Z,64.22
2022-11-16T06:04:04.360Z,63.99
2022-11-16T06:07:10.346Z,64.16
2022-11-16T06:10:16.082Z,63.98
2022-11-16T06:13:22.774Z,63.94
2022-11-16T06:16:29.485Z,64.47
2022-11-16T06:19:35.571Z,63.84
2022-11-16T06:22:41.214Z,63.29
2022-11-16T06:25:46.824Z,63.54
2022-11-16T06:28:54.944Z,64.65
2022-11-16T06:32:00.797Z,65.12
2022-11-16T06:35:07.072Z,64.48
2022-11-16T06:38:18.459Z,64.66
2022-11-16T06:41:26.110Z,64.82
2022-11-16T06:44:31.637Z,64.24
2022-11-16T06:47:39.703Z,64.07
2022-11-16T06:50:45.705Z,64.00
2022-11-16T06:53:51.696Z,63.72
2022-11-16T06:56:57.681Z,63.79
2022-11-16T07:00:03.260Z,64.00
2022-11-16T07:03:09.260Z,64.18
2022-11-16T07:06:15.668Z,64.21
2022-11-16T07:09:23.240Z,63.58
2022-11-16T07:12:29.198Z,63.35
2022-11-16T07:15:35.654Z,63.34
2022-11-16T07:18:42.121Z,63.12
2022-11-16T07:21:47.712Z,63.18
2022-11-16T07:24:55.529Z,63.02
2022-11-16T07:28:01.619Z,62.36
2022-11-16T07:31:09.204Z,62.66
2022-11-16T07:34:15.076Z,63.15
2022-11-16T07:37:27.420Z,62.90
2022-11-16T07:40:33.066Z,62.70
2022-11-16T07:43:40.006Z,62.28
2022-11-16T07:46:54.341Z,61.61
2022-11-16T07:49:59.633Z,61.56
2022-11-16T07:53:06.688Z,61.75
2022-11-16T07:56:12.717Z,62.15
2022-11-16T07:59:18.590Z,62.26
2022-11-16T08:02:24.594Z,61.48
2022-11-16T08:05:31.008Z,61.02
2022-11-16T08:08:36.763Z,61.01
2022-11-16T08:11:42.708Z,61.05
2022-11-16T08:14:48.343Z,60.34
2022-11-16T08:17:53.885Z,60.09
2022-11-16T08:21:01.849Z,60.44
2022-11-16T08:24:08.899Z,60.12
2022-11-16T08:27:17.605Z,60.08
2022-11-16T08:30:28.281Z,60.14
2022-11-16T08:33:33.782Z,60.27
2022-11-16T08:36:41.410Z,60.34
2022-11-16T08:39:47.076Z,60.37
2022-11-16T08:42:57.128Z,61.24
2022-11-16T08:46:05.363Z,63.40
2022-11-16T08:49:11.508Z,64.05
2022-11-16T08:52:16.995Z,63.68
2022-11-16T08:55:22.559Z,63.19
2022-11-16T08:58:27.893Z,63.26
2022-11-16T09:01:33.681Z,62.93
2022-11-16T09:04:39.205Z,62.96
2022-11-16T09:07:45.830Z,62.11
2022-11-16T09:10:51.200Z,61.57
2022-11-16T09:13:57.522Z,62.14
2022-11-16T09:17:02.916Z,61.21
2022-11-16T09:20:09.732Z,61.07
2022-11-16T09:23:15.057Z,61.15
2022-11-16T09:26:23.308Z,61.16
2022-11-16T09:29:28.947Z,60.60
2022-11-16T09:32:34.388Z,59.97
2022-11-16T09:35:43.560Z,59.71
2022-11-16T09:42:29.888Z,59.73
2022-11-16T09:45:40.322Z,59.60
2022-11-16T09:48:45.859Z,60.07
2022-11-16T09:51:52.556Z,63.70
2022-11-16T09:55:00.539Z,62.75
2022-11-16T09:58:09.921Z,61.57
2022-11-16T10:01:22.513Z,60.67
2022-11-16T10:04:37.206Z,59.97
2022-11-16T10:07:44.382Z,59.61
2022-11-16T10:10:55.969Z,59.73
2022-11-16T10:14:07.238Z,59.59
2022-11-16T10:17:18.848Z,59.39
2022-11-16T10:20:43.780Z,62.89
2022-11-16T10:23:56.722Z,62.19
2022-11-16T10:27:09.298Z,60.85
2022-11-16T10:30:17.146Z,60.54
2022-11-16T10:33:24.028Z,60.00
2022-11-16T10:36:31.521Z,59.46
2022-11-16T10:39:41.085Z,59.89
2022-11-16T10:42:48.159Z,63.59
2022-11-16T10:45:58.294Z,63.10
2022-11-16T10:49:09.567Z,61.26
2022-11-16T10:52:15.046Z,60.15
2022-11-16T10:55:21.938Z,58.72
2022-11-16T10:58:27.270Z,60.65
2022-11-16T11:01:37.384Z,64.63
2022-11-16T11:05:01.351Z,63.30
2022-11-16T11:08:08.600Z,61.38
2022-11-16T11:11:38.499Z,60.37
2022-11-16T11:15:01.033Z,59.86
2022-11-16T11:18:13.283Z,59.64
2022-11-16T11:21:21.007Z,59.11
2022-11-16T11:27:53.775Z,63.50
2022-11-16T11:31:01.614Z,63.83
2022-11-16T11:34:14.969Z,61.72
2022-11-16T11:37:22.620Z,60.93
2022-11-16T11:40:28.756Z,60.73
2022-11-16T11:43:35.522Z,60.44
2022-11-16T11:47:18.610Z,59.91
2022-11-16T11:50:12.358Z,59.65
2022-11-16T11:53:23.381Z,60.11
2022-11-16T11:56:30.715Z,63.20
2022-11-16T11:59:36.226Z,62.77
2022-11-16T12:02:49.636Z,61.23
2022-11-16T12:06:06.069Z,60.28
2022-11-16T12:09:22.402Z,59.49
2022-11-16T12:12:38.339Z,61.99
2022-11-16T12:15:52.860Z,63.44
2022-11-16T12:19:17.999Z,61.66
2022-11-16T12:22:33.919Z,60.35
2022-11-16T12:25:43.963Z,59.63
2022-11-16T12:28:56.934Z,58.85
2022-11-16T12:32:19.154Z,60.72
2022-11-16T12:35:31.687Z,63.89
2022-11-16T12:38:48.615Z,61.96
2022-11-16T12:42:13.892Z,60.38
2022-11-16T12:45:33.676Z,59.42
2022-11-16T12:48:45.819Z,62.47
2022-11-16T12:51:57.150Z,63.48
2022-11-16T12:55:25.862Z,61.19
2022-11-16T12:58:39.493Z,58.82
2022-11-16T13:01:49.115Z,62.21
2022-11-16T13:04:58.529Z,63.23
2022-11-16T13:08:05.995Z,60.97
2022-11-16T13:11:15.744Z,59.49
2022-11-16T13:14:25.508Z,60.97
2022-11-16T13:17:33.450Z,63.48
2022-11-16T13:20:45.051Z,61.74
2022-11-16T13:23:54.783Z,59.94
2022-11-16T13:27:07.714Z,59.04
2022-11-16T13:30:19.282Z,61.02
2022-11-16T13:33:29.245Z,63.55
2022-11-16T13:36:45.083Z,61.88
2022-11-16T13:40:08.692Z,60.47
2022-11-16T13:43:18.409Z,59.51
2022-11-16T13:46:54.081Z,60.26
2022-11-16T13:49:53.250Z,63.98
2022-11-16T13:56:29.510Z,60.64
2022-11-16T13:59:37.235Z,59.20
2022-11-16T14:02:43.169Z,60.98
2022-11-16T14:05:49.520Z,63.72
2022-11-16T14:08:55.647Z,62.59
2022-11-16T14:12:20.981Z,60.61
2022-11-16T14:15:28.593Z,59.82
2022-11-16T14:18:37.297Z,59.19
2022-11-16T14:21:48.903Z,61.63
2022-11-16T14:24:58.677Z,63.71
2022-11-16T14:28:14.567Z,62.21
2022-11-16T14:31:23.025Z,60.45
2022-11-16T14:34:31.655Z,59.11
2022-11-16T14:37:39.911Z,61.22
2022-11-16T14:40:47.257Z,64.31
2022-11-16T14:43:55.132Z,63.03
2022-11-16T14:47:00.701Z,61.15
2022-11-16T14:50:18.315Z,60.16
2022-11-16T14:53:27.256Z,59.34
2022-11-16T14:56:32.872Z,61.43
2022-11-16T14:59:38.446Z,64.34
2022-11-16T15:02:51.040Z,63.29
2022-11-16T15:05:59.836Z,61.04
2022-11-16T15:09:05.915Z,60.45
2022-11-16T15:12:32.976Z,59.98
2022-11-16T15:15:38.761Z,58.89
2022-11-16T15:18:56.303Z,61.31
2022-11-16T15:22:02.737Z,63.76
2022-11-16T15:25:24.899Z,62.71
2022-11-16T15:28:31.793Z,61.27
2022-11-16T15:31:38.485Z,60.11
2022-11-16T15:34:44.336Z,60.06
2022-11-16T15:37:52.218Z,59.45
2022-11-16T15:40:58.798Z,60.73
2022-11-16T15:44:14.655Z,63.38
2022-11-16T15:47:22.807Z,62.63
2022-11-16T15:50:29.153Z,61.75
2022-11-16T15:53:36.875Z,61.26
2022-11-16T15:56:43.646Z,60.23
2022-11-16T15:59:50.642Z,60.19
2022-11-16T16:02:56.620Z,60.87
2022-11-16T16:06:02.542Z,61.26
2022-11-16T16:09:08.011Z,61.45
2022-11-16T16:12:20.175Z,61.66
2022-11-16T16:15:27.009Z,61.75
2022-11-16T16:18:41.627Z,61.21
2022-11-16T16:21:52.464Z,61.75
2022-11-16T16:24:58.414Z,60.97
2022-11-16T16:28:04.055Z,60.37
2022-11-16T16:31:10.099Z,61.24
2022-11-16T16:34:17.974Z,61.18
2022-11-16T16:37:23.782Z,60.37
2022-11-16T16:40:29.436Z,60.40
2022-11-16T16:43:35.799Z,60.30
2022-11-16T16:46:41.325Z,60.51
2022-11-16T16:49:46.873Z,59.73
2022-11-16T16:52:52.209Z,60.07
2022-11-16T16:56:00.359Z,64.13
2022-11-16T16:59:06.026Z,63.93
2022-11-16T17:02:12.585Z,62.41
2022-11-16T17:05:18.283Z,61.99
2022-11-16T17:08:23.797Z,61.33
2022-11-16T17:11:29.938Z,60.77
2022-11-16T17:14:35.610Z,61.11
2022-11-16T17:17:42.949Z,61.06
2022-11-16T17:20:48.326Z,60.96
2022-11-16T17:23:53.709Z,61.00
2022-11-16T17:26:59.181Z,61.12
2022-11-16T17:30:05.200Z,60.96
2022-11-16T17:33:10.473Z,61.13
2022-11-16T17:36:16.376Z,61.06
2022-11-16T17:39:22.585Z,61.37
2022-11-16T17:42:28.661Z,61.05
2022-11-16T17:45:34.084Z,60.82
2022-11-16T17:48:40.478Z,60.72
2022-11-16T17:51:46.056Z,60.62
2022-11-16T17:54:51.377Z,60.65
2022-11-16T17:57:58.591Z,60.94
2022-11-16T18:01:04.036Z,60.58
2022-11-16T18:04:09.436Z,60.31
2022-11-16T18:07:14.829Z,60.85
2022-11-16T18:10:20.343Z,61.21
2022-11-16T18:13:25.882Z,61.29
2022-11-16T18:16:32.251Z,60.49
2022-11-16T18:19:37.828Z,60.14
2022-11-16T18:22:43.345Z,61.09
2022-11-16T18:25:48.982Z,61.66
2022-11-16T18:28:54.385Z,61.41
2022-11-16T18:31:59.803Z,61.25
2022-11-16T18:35:10.029Z,61.93
2022-11-16T18:38:15.412Z,61.31
2022-11-16T18:41:21.895Z,61.23
2022-11-16T18:44:27.305Z,61.41
2022-11-16T18:47:32.717Z,61.56
2022-11-16T18:50:38.272Z,61.31
2022-11-16T18:53:46.439Z,60.40
2022-11-16T18:56:51.877Z,60.24
2022-11-16T18:59:57.321Z,60.18
2022-11-16T19:03:05.761Z,60.93
2022-11-16T19:06:15.034Z,60.65
2022-11-16T19:09:20.645Z,60.57
2022-11-16T19:12:26.169Z,60.35
2022-11-16T19:15:31.747Z,59.80
2022-11-16T19:18:37.885Z,60.59
2022-11-16T19:21:43.428Z,59.90
2022-11-16T19:24:48.830Z,59.79
2022-11-16T19:27:54.119Z,60.41
2022-11-16T19:30:59.831Z,60.30
2022-11-16T19:34:06.223Z,60.28
2022-11-16T19:37:11.840Z,60.63
2022-11-16T19:40:22.197Z,61.49
2022-11-16T19:43:30.163Z,60.99
2022-11-16T19:46:38.194Z,60.50
2022-11-16T19:49:43.636Z,60.48
2022-11-16T19:52:49.005Z,60.13
2022-11-16T19:55:57.426Z,59.77
2022-11-16T19:59:02.709Z,59.64
2022-11-16T20:02:10.360Z,59.46
2022-11-16T20:05:16.381Z,62.49
2022-11-16T20:08:21.793Z,63.81
2022-11-16T20:11:27.911Z,61.86
2022-11-16T20:14:33.389Z,60.42
2022-11-16T20:17:39.025Z,59.87
2022-11-16T20:20:44.786Z,59.73
2022-11-16T20:23:51.743Z,59.67
2022-11-16T20:26:57.090Z,59.34
2022-11-16T20:30:08.009Z,61.11
2022-11-16T20:33:15.540Z,64.30
2022-11-16T20:36:22.884Z,62.70
2022-11-16T20:39:28.403Z,60.91
2022-11-16T20:42:34.068Z,59.87
2022-11-16T20:45:39.747Z,59.00
2022-11-16T20:48:45.641Z,62.56
2022-11-16T20:51:51.761Z,63.49
2022-11-16T20:55:00.148Z,60.87
2022-11-16T20:58:05.626Z,60.29
2022-11-16T21:01:13.243Z,59.64
2022-11-16T21:04:21.627Z,59.35
2022-11-16T21:07:27.063Z,62.60
2022-11-16T21:10:35.417Z,63.19
2022-11-16T21:13:58.676Z,60.81
2022-11-16T21:17:04.555Z,59.41
2022-11-16T21:20:28.363Z,60.91
2022-11-16T21:23:39.105Z,64.54
2022-11-16T21:26:44.490Z,63.37
2022-11-16T21:29:49.652Z,60.94
2022-11-16T21:32:54.899Z,60.26
2022-11-16T21:36:03.522Z,60.65
2022-11-16T21:39:09.088Z,60.77
2022-11-16T21:42:14.443Z,59.91
2022-11-16T21:45:19.768Z,59.02
2022-11-16T21:48:25.174Z,61.02
2022-11-16T21:51:30.816Z,64.25
2022-11-16T21:54:48.565Z,62.44
2022-11-16T21:57:53.850Z,60.94
2022-11-16T22:00:59.933Z,60.31
2022-11-16T22:04:22.995Z,59.58
2022-11-16T22:07:34.492Z,59.29
2022-11-16T22:10:39.827Z,62.20
2022-11-16T22:13:45.652Z,64.31
2022-11-16T22:16:51.686Z,62.63
2022-11-16T22:19:57.764Z,60.88
2022-11-16T22:23:03.609Z,60.01
2022-11-16T22:26:10.640Z,59.39
2022-11-16T22:29:16.507Z,60.82
2022-11-16T22:32:22.279Z,63.55
2022-11-16T22:35:31.036Z,62.48
2022-11-16T22:38:39.296Z,60.57
2022-11-16T22:41:45.216Z,59.36
2022-11-16T22:44:51.187Z,60.14
2022-11-16T22:47:57.200Z,63.71
2022-11-16T22:51:13.577Z,63.02
2022-11-16T22:54:22.199Z,61.38
2022-11-16T22:57:30.543Z,60.19
2022-11-16T23:00:41.780Z,59.24
2022-11-16T23:03:48.718Z,60.93
2022-11-16T23:06:54.868Z,64.75
2022-11-16T23:10:00.940Z,64.72
2022-11-16T23:13:24.383Z,62.51
2022-11-16T23:16:30.401Z,60.33
2022-11-16T23:19:53.905Z,59.52
2022-11-16T23:23:17.482Z,63.74
2022-11-16T23:26:42.284Z,63.96
2022-11-16T23:29:48.548Z,62.39
2022-11-16T23:32:54.473Z,61.54
2022-11-16T23:36:00.313Z,60.43
2022-11-16T23:39:06.862Z,59.62
2022-11-16T23:42:30.266Z,59.80
2022-11-16T23:45:36.235Z,60.26
2022-11-16T23:48:42.213Z,63.81
2022-11-16T23:51:47.986Z,63.08
2022-11-16T23:54:53.883Z,60.87
2022-11-16T23:57:59.718Z,60.27
